sensor_id;sensor_type;location;lat;lon;timestamp;temperature;humidity
21085;DHT22;34247;50.064;19.970;2023-01-15T00:00:17;21.90;24.30
21085;DHT22;34247;50.064;19.970;2023-01-15T00:01:30;21.90;24.40
21085;DHT22;34247;50.064;19.970;2023-01-15T00:02:42;21.90;24.40
21085;DHT22;34247;50.064;19.970;2023-01-15T00:03:46;21.90;24.40
21085;DHT22;34247;50.064;19.970;2023-01-15T00:04:53;21.90;24.30
21085;DHT22;34247;50.064;19.970;2023-01-15T00:06:05;21.90;24.30
21085;DHT22;34247;50.064;19.970;2023-01-15T00:07:09;21.90;24.30
21085;DHT22;34247;50.064;19.970;2023-01-15T00:08:13;21.90;24.30
21085;DHT22;34247;50.064;19.970;2023-01-15T00:09:16;22.00;24.30
21085;DHT22;34247;50.064;19.970;2023-01-15T00:10:20;22.00;24.30
21085;DHT22;34247;50.064;19.970;2023-01-15T00:11:24;22.00;24.30
21085;DHT22;34247;50.064;19.970;2023-01-15T00:12:27;22.00;24.30
21085;DHT22;34247;50.064;19.970;2023-01-15T00:13:31;22.00;24.30
21085;DHT22;34247;50.064;19.970;2023-01-15T00:14:35;22.00;24.30
21085;DHT22;34247;50.064;19.970;2023-01-15T00:15:39;22.00;24.30
21085;DHT22;34247;50.064;19.970;2023-01-15T00:16:42;22.00;24.30
21085;DHT22;34247;50.064;19.970;2023-01-15T00:17:47;22.00;24.20
21085;DHT22;34247;50.064;19.970;2023-01-15T00:18:53;22.00;24.20
21085;DHT22;34247;50.064;19.970;2023-01-15T00:19:58;22.00;24.20
21085;DHT22;34247;50.064;19.970;2023-01-15T00:21:04;22.10;24.20
21085;DHT22;34247;50.064;19.970;2023-01-15T00:22:09;22.10;24.10
21085;DHT22;34247;50.064;19.970;2023-01-15T00:23:12;22.10;24.10
21085;DHT22;34247;50.064;19.970;2023-01-15T00:24:36;22.10;24.10
21085;DHT22;34247;50.064;19.970;2023-01-15T00:25:58;22.10;24.10
21085;DHT22;34247;50.064;19.970;2023-01-15T00:27:20;22.10;24.20
21085;DHT22;34247;50.064;19.970;2023-01-15T00:28:42;22.10;24.10
21085;DHT22;34247;50.064;19.970;2023-01-15T00:29:46;22.10;24.20
21085;DHT22;34247;50.064;19.970;2023-01-15T00:30:49;22.10;24.10
21085;DHT22;34247;50.064;19.970;2023-01-15T00:31:57;22.10;24.10
21085;DHT22;34247;50.064;19.970;2023-01-15T00:33:04;22.10;24.10
21085;DHT22;34247;50.064;19.970;2023-01-15T00:34:07;22.10;24.00
21085;DHT22;34247;50.064;19.970;2023-01-15T00:35:14;22.20;24.10
21085;DHT22;34247;50.064;19.970;2023-01-15T00:36:20;22.20;24.10
21085;DHT22;34247;50.064;19.970;2023-01-15T00:37:25;22.20;24.10
21085;DHT22;34247;50.064;19.970;2023-01-15T00:38:29;22.20;24.10
21085;DHT22;34247;50.064;19.970;2023-01-15T00:39:32;22.20;24.10
21085;DHT22;34247;50.064;19.970;2023-01-15T00:40:37;22.20;24.00
21085;DHT22;34247;50.064;19.970;2023-01-15T00:41:41;22.20;24.00
21085;DHT22;34247;50.064;19.970;2023-01-15T00:42:44;22.20;24.00
21085;DHT22;34247;50.064;19.970;2023-01-15T00:43:56;22.20;24.00
21085;DHT22;34247;50.064;19.970;2023-01-15T00:45:00;22.20;24.00
21085;DHT22;34247;50.064;19.970;2023-01-15T00:46:12;22.20;24.00
21085;DHT22;34247;50.064;19.970;2023-01-15T00:47:15;22.20;23.90
21085;DHT22;34247;50.064;19.970;2023-01-15T00:48:19;22.20;23.90
21085;DHT22;34247;50.064;19.970;2023-01-15T00:49:23;22.20;23.90
21085;DHT22;34247;50.064;19.970;2023-01-15T00:50:26;22.20;23.90
21085;DHT22;34247;50.064;19.970;2023-01-15T00:51:30;22.20;23.80
21085;DHT22;34247;50.064;19.970;2023-01-15T00:52:34;22.20;23.80
21085;DHT22;34247;50.064;19.970;2023-01-15T00:53:38;22.20;23.80
21085;DHT22;34247;50.064;19.970;2023-01-15T00:54:44;22.20;23.80
21085;DHT22;34247;50.064;19.970;2023-01-15T00:55:48;22.20;23.80
21085;DHT22;34247;50.064;19.970;2023-01-15T00:56:51;22.20;23.80
21085;DHT22;34247;50.064;19.970;2023-01-15T00:57:55;22.20;23.80
21085;DHT22;34247;50.064;19.970;2023-01-15T00:59:01;22.20;23.80
21085;DHT22;34247;50.064;19.970;2023-01-15T01:00:07;22.20;23.70
21085;DHT22;34247;50.064;19.970;2023-01-15T01:01:14;22.20;23.70
21085;DHT22;34247;50.064;19.970;2023-01-15T01:02:18;22.20;23.70
21085;DHT22;34247;50.064;19.970;2023-01-15T01:03:23;22.20;23.70
21085;DHT22;34247;50.064;19.970;2023-01-15T01:04:27;22.20;23.70
21085;DHT22;34247;50.064;19.970;2023-01-15T01:05:31;22.20;23.70
21085;DHT22;34247;50.064;19.970;2023-01-15T01:06:34;22.20;23.70
21085;DHT22;34247;50.064;19.970;2023-01-15T01:07:38;22.20;23.70
21085;DHT22;34247;50.064;19.970;2023-01-15T01:08:43;22.20;23.70
21085;DHT22;34247;50.064;19.970;2023-01-15T01:09:50;22.20;23.70
21085;DHT22;34247;50.064;19.970;2023-01-15T01:11:10;22.20;23.70
21085;DHT22;34247;50.064;19.970;2023-01-15T01:12:17;22.20;23.70
21085;DHT22;34247;50.064;19.970;2023-01-15T01:13:24;22.20;23.70
21085;DHT22;34247;50.064;19.970;2023-01-15T01:14:28;22.20;23.70
21085;DHT22;34247;50.064;19.970;2023-01-15T01:15:36;22.20;23.70
21085;DHT22;34247;50.064;19.970;2023-01-15T01:16:40;22.30;23.70
21085;DHT22;34247;50.064;19.970;2023-01-15T01:17:44;22.30;23.70
21085;DHT22;34247;50.064;19.970;2023-01-15T01:18:48;22.30;23.70
21085;DHT22;34247;50.064;19.970;2023-01-15T01:19:52;22.30;23.80
21085;DHT22;34247;50.064;19.970;2023-01-15T01:20:55;22.30;23.70
21085;DHT22;34247;50.064;19.970;2023-01-15T01:21:59;22.30;23.70
21085;DHT22;34247;50.064;19.970;2023-01-15T01:23:03;22.30;23.70
21085;DHT22;34247;50.064;19.970;2023-01-15T01:24:07;22.30;24.20
21085;DHT22;34247;50.064;19.970;2023-01-15T01:25:12;22.30;23.70
21085;DHT22;34247;50.064;19.970;2023-01-15T01:26:15;22.30;23.80
21085;DHT22;34247;50.064;19.970;2023-01-15T01:27:19;22.30;23.80
21085;DHT22;34247;50.064;19.970;2023-01-15T01:28:23;22.30;23.80
21085;DHT22;34247;50.064;19.970;2023-01-15T01:29:27;22.30;23.80
21085;DHT22;34247;50.064;19.970;2023-01-15T01:30:30;22.30;23.80
21085;DHT22;34247;50.064;19.970;2023-01-15T01:31:34;22.30;23.80
21085;DHT22;34247;50.064;19.970;2023-01-15T01:32:38;22.30;23.80
21085;DHT22;34247;50.064;19.970;2023-01-15T01:33:42;22.30;23.70
21085;DHT22;34247;50.064;19.970;2023-01-15T01:34:46;22.30;23.80
21085;DHT22;34247;50.064;19.970;2023-01-15T01:35:50;22.40;23.80
21085;DHT22;34247;50.064;19.970;2023-01-15T01:36:53;22.40;23.90
21085;DHT22;34247;50.064;19.970;2023-01-15T01:37:57;22.30;23.80
21085;DHT22;34247;50.064;19.970;2023-01-15T01:39:02;22.30;23.90
21085;DHT22;34247;50.064;19.970;2023-01-15T01:40:07;22.40;23.90
21085;DHT22;34247;50.064;19.970;2023-01-15T01:41:12;22.40;23.90
21085;DHT22;34247;50.064;19.970;2023-01-15T01:42:16;22.30;23.80
21085;DHT22;34247;50.064;19.970;2023-01-15T01:43:26;22.40;23.90
21085;DHT22;34247;50.064;19.970;2023-01-15T01:45:35;22.30;23.90
21085;DHT22;34247;50.064;19.970;2023-01-15T01:46:38;22.40;23.80
21085;DHT22;34247;50.064;19.970;2023-01-15T01:47:42;22.30;23.90
21085;DHT22;34247;50.064;19.970;2023-01-15T01:48:48;22.40;23.80
21085;DHT22;34247;50.064;19.970;2023-01-15T01:50:00;22.30;23.50
21085;DHT22;34247;50.064;19.970;2023-01-15T01:51:08;22.30;23.40
21085;DHT22;34247;50.064;19.970;2023-01-15T01:52:19;22.30;23.40
21085;DHT22;34247;50.064;19.970;2023-01-15T01:53:28;22.30;23.60
21085;DHT22;34247;50.064;19.970;2023-01-15T01:54:35;22.40;23.70
21085;DHT22;34247;50.064;19.970;2023-01-15T01:55:40;22.40;23.50
21085;DHT22;34247;50.064;19.970;2023-01-15T01:56:44;22.40;23.40
21085;DHT22;34247;50.064;19.970;2023-01-15T01:57:54;22.40;23.50
21085;DHT22;34247;50.064;19.970;2023-01-15T01:59:02;22.40;23.30
21085;DHT22;34247;50.064;19.970;2023-01-15T02:00:09;22.40;23.40
21085;DHT22;34247;50.064;19.970;2023-01-15T02:01:14;22.40;23.40
21085;DHT22;34247;50.064;19.970;2023-01-15T02:02:21;22.40;23.30
21085;DHT22;34247;50.064;19.970;2023-01-15T02:03:30;22.40;23.20
21085;DHT22;34247;50.064;19.970;2023-01-15T02:04:38;22.40;23.20
21085;DHT22;34247;50.064;19.970;2023-01-15T02:05:46;22.50;23.20
21085;DHT22;34247;50.064;19.970;2023-01-15T02:06:54;22.50;23.20
21085;DHT22;34247;50.064;19.970;2023-01-15T02:08:00;22.50;23.00
21085;DHT22;34247;50.064;19.970;2023-01-15T02:09:05;22.50;23.00
21085;DHT22;34247;50.064;19.970;2023-01-15T02:10:18;22.50;23.00
21085;DHT22;34247;50.064;19.970;2023-01-15T02:11:22;22.50;22.90
21085;DHT22;34247;50.064;19.970;2023-01-15T02:12:35;22.50;23.00
21085;DHT22;34247;50.064;19.970;2023-01-15T02:15:34;22.50;23.00
21085;DHT22;34247;50.064;19.970;2023-01-15T02:18:29;22.70;22.50
21085;DHT22;34247;50.064;19.970;2023-01-15T02:21:10;22.80;22.30
21085;DHT22;34247;50.064;19.970;2023-01-15T02:25:20;23.00;22.10
21085;DHT22;34247;50.064;19.970;2023-01-15T02:28:37;23.00;22.10
21085;DHT22;34247;50.064;19.970;2023-01-15T02:31:20;23.00;22.10
21085;DHT22;34247;50.064;19.970;2023-01-15T02:33:49;22.90;22.30
21085;DHT22;34247;50.064;19.970;2023-01-15T02:35:27;22.90;22.20
21085;DHT22;34247;50.064;19.970;2023-01-15T02:36:34;23.00;22.20
21085;DHT22;34247;50.064;19.970;2023-01-15T02:37:47;23.00;22.20
21085;DHT22;34247;50.064;19.970;2023-01-15T02:38:57;23.00;22.10
21085;DHT22;34247;50.064;19.970;2023-01-15T02:40:05;23.00;22.20
21085;DHT22;34247;50.064;19.970;2023-01-15T02:41:10;23.00;22.20
21085;DHT22;34247;50.064;19.970;2023-01-15T02:42:21;23.00;22.10
21085;DHT22;34247;50.064;19.970;2023-01-15T02:43:33;23.10;22.20
21085;DHT22;34247;50.064;19.970;2023-01-15T02:44:45;23.10;22.10
21085;DHT22;34247;50.064;19.970;2023-01-15T02:45:55;23.10;22.10
21085;DHT22;34247;50.064;19.970;2023-01-15T02:47:03;23.10;22.20
21085;DHT22;34247;50.064;19.970;2023-01-15T02:48:12;23.10;22.20
21085;DHT22;34247;50.064;19.970;2023-01-15T02:49:19;23.10;22.10
21085;DHT22;34247;50.064;19.970;2023-01-15T02:50:30;23.10;22.10
21085;DHT22;34247;50.064;19.970;2023-01-15T02:51:47;23.10;22.10
21085;DHT22;34247;50.064;19.970;2023-01-15T02:53:13;23.20;22.00
21085;DHT22;34247;50.064;19.970;2023-01-15T02:54:24;23.20;21.90
21085;DHT22;34247;50.064;19.970;2023-01-15T02:55:37;23.20;21.90
21085;DHT22;34247;50.064;19.970;2023-01-15T02:56:47;23.20;22.00
21085;DHT22;34247;50.064;19.970;2023-01-15T02:57:54;23.20;22.10
21085;DHT22;34247;50.064;19.970;2023-01-15T02:59:06;23.30;22.10
21085;DHT22;34247;50.064;19.970;2023-01-15T03:02:09;23.30;22.20
21085;DHT22;34247;50.064;19.970;2023-01-15T03:04:43;23.30;21.90
21085;DHT22;34247;50.064;19.970;2023-01-15T03:06:18;23.30;21.90
21085;DHT22;34247;50.064;19.970;2023-01-15T03:07:39;23.30;21.90
21085;DHT22;34247;50.064;19.970;2023-01-15T03:08:48;23.30;21.70
21085;DHT22;34247;50.064;19.970;2023-01-15T03:09:53;23.40;21.40
21085;DHT22;34247;50.064;19.970;2023-01-15T03:11:14;23.50;21.50
21085;DHT22;34247;50.064;19.970;2023-01-15T03:12:23;23.50;21.50
21085;DHT22;34247;50.064;19.970;2023-01-15T03:15:15;23.40;21.60
21085;DHT22;34247;50.064;19.970;2023-01-15T03:16:52;23.50;21.50
21085;DHT22;34247;50.064;19.970;2023-01-15T03:18:00;23.50;21.60
21085;DHT22;34247;50.064;19.970;2023-01-15T03:20:51;23.50;21.50
21085;DHT22;34247;50.064;19.970;2023-01-15T03:22:29;23.50;21.50
21085;DHT22;34247;50.064;19.970;2023-01-15T03:23:38;23.50;21.30
21085;DHT22;34247;50.064;19.970;2023-01-15T03:26:24;23.60;21.10
21085;DHT22;34247;50.064;19.970;2023-01-15T03:27:28;23.60;21.00
21085;DHT22;34247;50.064;19.970;2023-01-15T03:28:34;23.70;21.00
21085;DHT22;34247;50.064;19.970;2023-01-15T03:29:50;23.70;21.00
21085;DHT22;34247;50.064;19.970;2023-01-15T03:30:58;23.60;21.10
21085;DHT22;34247;50.064;19.970;2023-01-15T03:32:02;23.70;21.00
21085;DHT22;34247;50.064;19.970;2023-01-15T03:33:06;23.70;21.00
21085;DHT22;34247;50.064;19.970;2023-01-15T03:34:13;23.70;21.00
21085;DHT22;34247;50.064;19.970;2023-01-15T03:35:47;23.70;21.00
21085;DHT22;34247;50.064;19.970;2023-01-15T03:36:51;23.70;20.90
21085;DHT22;34247;50.064;19.970;2023-01-15T03:37:55;23.70;21.00
21085;DHT22;34247;50.064;19.970;2023-01-15T03:38:59;23.70;21.00
21085;DHT22;34247;50.064;19.970;2023-01-15T03:40:03;23.70;21.00
21085;DHT22;34247;50.064;19.970;2023-01-15T03:41:24;23.70;21.00
21085;DHT22;34247;50.064;19.970;2023-01-15T03:43:08;23.70;20.90
21085;DHT22;34247;50.064;19.970;2023-01-15T03:46:31;23.80;20.90
21085;DHT22;34247;50.064;19.970;2023-01-15T03:50:34;23.80;20.90
21085;DHT22;34247;50.064;19.970;2023-01-15T03:51:46;23.80;20.90
21085;DHT22;34247;50.064;19.970;2023-01-15T03:53:30;23.80;21.00
21085;DHT22;34247;50.064;19.970;2023-01-15T03:57:59;23.90;20.90
21085;DHT22;34247;50.064;19.970;2023-01-15T03:59:22;23.90;20.90
21085;DHT22;34247;50.064;19.970;2023-01-15T04:00:38;23.80;20.90
21085;DHT22;34247;50.064;19.970;2023-01-15T04:01:54;23.80;21.00
21085;DHT22;34247;50.064;19.970;2023-01-15T04:03:01;23.80;21.00
21085;DHT22;34247;50.064;19.970;2023-01-15T04:04:10;23.80;21.00
21085;DHT22;34247;50.064;19.970;2023-01-15T04:05:16;23.70;21.10
21085;DHT22;34247;50.064;19.970;2023-01-15T04:06:20;23.70;21.20
21085;DHT22;34247;50.064;19.970;2023-01-15T04:07:28;23.70;21.30
21085;DHT22;34247;50.064;19.970;2023-01-15T04:08:36;23.80;21.20
21085;DHT22;34247;50.064;19.970;2023-01-15T04:09:42;23.80;21.20
21085;DHT22;34247;50.064;19.970;2023-01-15T04:10:56;23.70;21.10
21085;DHT22;34247;50.064;19.970;2023-01-15T04:12:01;23.80;21.20
21085;DHT22;34247;50.064;19.970;2023-01-15T04:13:05;23.80;21.10
21085;DHT22;34247;50.064;19.970;2023-01-15T04:14:12;23.80;21.20
21085;DHT22;34247;50.064;19.970;2023-01-15T04:15:17;23.80;21.10
21085;DHT22;34247;50.064;19.970;2023-01-15T04:16:29;23.80;21.10
21085;DHT22;34247;50.064;19.970;2023-01-15T04:17:34;23.80;21.10
21085;DHT22;34247;50.064;19.970;2023-01-15T04:18:38;23.80;21.20
21085;DHT22;34247;50.064;19.970;2023-01-15T04:19:41;23.80;21.10
21085;DHT22;34247;50.064;19.970;2023-01-15T04:20:46;23.80;21.10
21085;DHT22;34247;50.064;19.970;2023-01-15T04:21:51;23.80;21.10
21085;DHT22;34247;50.064;19.970;2023-01-15T04:22:54;23.80;21.20
21085;DHT22;34247;50.064;19.970;2023-01-15T04:23:58;23.80;21.30
21085;DHT22;34247;50.064;19.970;2023-01-15T04:25:02;23.80;21.30
21085;DHT22;34247;50.064;19.970;2023-01-15T04:26:07;23.80;21.30
21085;DHT22;34247;50.064;19.970;2023-01-15T04:27:11;23.80;21.30
21085;DHT22;34247;50.064;19.970;2023-01-15T04:28:15;23.90;21.20
21085;DHT22;34247;50.064;19.970;2023-01-15T04:29:19;23.90;21.10
21085;DHT22;34247;50.064;19.970;2023-01-15T04:30:23;23.90;21.20
21085;DHT22;34247;50.064;19.970;2023-01-15T04:31:26;23.90;21.10
21085;DHT22;34247;50.064;19.970;2023-01-15T04:32:30;24.00;21.10
21085;DHT22;34247;50.064;19.970;2023-01-15T04:33:33;24.00;21.00
21085;DHT22;34247;50.064;19.970;2023-01-15T04:34:37;24.00;20.90
21085;DHT22;34247;50.064;19.970;2023-01-15T04:35:40;24.00;20.90
21085;DHT22;34247;50.064;19.970;2023-01-15T04:36:44;24.10;20.80
21085;DHT22;34247;50.064;19.970;2023-01-15T04:37:57;24.10;20.80
21085;DHT22;34247;50.064;19.970;2023-01-15T04:39:03;24.10;20.80
21085;DHT22;34247;50.064;19.970;2023-01-15T04:40:08;24.10;20.80
21085;DHT22;34247;50.064;19.970;2023-01-15T04:41:32;24.10;20.80
21085;DHT22;34247;50.064;19.970;2023-01-15T04:42:55;24.10;20.70
21085;DHT22;34247;50.064;19.970;2023-01-15T04:44:17;24.20;20.60
21085;DHT22;34247;50.064;19.970;2023-01-15T04:45:22;24.30;20.60
21085;DHT22;34247;50.064;19.970;2023-01-15T04:46:25;24.30;20.50
21085;DHT22;34247;50.064;19.970;2023-01-15T04:47:30;24.30;20.50
21085;DHT22;34247;50.064;19.970;2023-01-15T04:48:33;24.30;20.50
21085;DHT22;34247;50.064;19.970;2023-01-15T04:49:37;24.30;20.50
21085;DHT22;34247;50.064;19.970;2023-01-15T04:50:41;24.30;20.60
21085;DHT22;34247;50.064;19.970;2023-01-15T04:51:45;24.30;20.40
21085;DHT22;34247;50.064;19.970;2023-01-15T04:52:49;24.40;20.40
21085;DHT22;34247;50.064;19.970;2023-01-15T04:53:53;24.40;20.50
21085;DHT22;34247;50.064;19.970;2023-01-15T04:54:59;24.40;20.50
21085;DHT22;34247;50.064;19.970;2023-01-15T04:56:04;24.40;20.40
21085;DHT22;34247;50.064;19.970;2023-01-15T04:57:10;24.40;20.40
21085;DHT22;34247;50.064;19.970;2023-01-15T04:58:14;24.40;20.40
21085;DHT22;34247;50.064;19.970;2023-01-15T04:59:21;24.30;20.50
21085;DHT22;34247;50.064;19.970;2023-01-15T05:00:29;24.30;20.50
21085;DHT22;34247;50.064;19.970;2023-01-15T05:01:33;24.30;20.50
21085;DHT22;34247;50.064;19.970;2023-01-15T05:02:37;24.30;20.50
21085;DHT22;34247;50.064;19.970;2023-01-15T05:03:41;24.40;20.40
21085;DHT22;34247;50.064;19.970;2023-01-15T05:04:45;24.30;20.40
21085;DHT22;34247;50.064;19.970;2023-01-15T05:05:49;24.40;20.40
21085;DHT22;34247;50.064;19.970;2023-01-15T05:06:53;24.40;20.40
21085;DHT22;34247;50.064;19.970;2023-01-15T05:07:57;24.40;20.40
21085;DHT22;34247;50.064;19.970;2023-01-15T05:09:02;24.40;20.40
21085;DHT22;34247;50.064;19.970;2023-01-15T05:10:08;24.40;20.40
21085;DHT22;34247;50.064;19.970;2023-01-15T05:11:12;24.40;20.40
21085;DHT22;34247;50.064;19.970;2023-01-15T05:12:16;24.40;20.40
21085;DHT22;34247;50.064;19.970;2023-01-15T05:13:21;24.40;20.40
21085;DHT22;34247;50.064;19.970;2023-01-15T05:14:24;24.40;20.40
21085;DHT22;34247;50.064;19.970;2023-01-15T05:15:28;24.50;20.40
21085;DHT22;34247;50.064;19.970;2023-01-15T05:16:32;24.60;20.30
21085;DHT22;34247;50.064;19.970;2023-01-15T05:17:38;24.50;20.90
21085;DHT22;34247;50.064;19.970;2023-01-15T05:18:42;24.40;20.40
21085;DHT22;34247;50.064;19.970;2023-01-15T05:19:48;24.40;20.40
21085;DHT22;34247;50.064;19.970;2023-01-15T05:20:51;24.40;20.50
21085;DHT22;34247;50.064;19.970;2023-01-15T05:21:55;24.30;20.50
21085;DHT22;34247;50.064;19.970;2023-01-15T05:22:59;24.40;20.50
21085;DHT22;34247;50.064;19.970;2023-01-15T05:24:05;24.40;20.40
21085;DHT22;34247;50.064;19.970;2023-01-15T05:25:10;24.50;20.40
21085;DHT22;34247;50.064;19.970;2023-01-15T05:26:15;24.40;20.40
21085;DHT22;34247;50.064;19.970;2023-01-15T05:27:19;24.40;20.50
21085;DHT22;34247;50.064;19.970;2023-01-15T05:28:23;24.40;20.50
21085;DHT22;34247;50.064;19.970;2023-01-15T05:29:27;24.40;20.50
21085;DHT22;34247;50.064;19.970;2023-01-15T05:30:30;24.40;20.50
21085;DHT22;34247;50.064;19.970;2023-01-15T05:31:34;24.40;20.50
21085;DHT22;34247;50.064;19.970;2023-01-15T05:32:38;24.40;20.50
21085;DHT22;34247;50.064;19.970;2023-01-15T05:33:44;24.50;20.40
21085;DHT22;34247;50.064;19.970;2023-01-15T05:34:49;24.50;20.40
21085;DHT22;34247;50.064;19.970;2023-01-15T05:35:52;24.40;20.50
21085;DHT22;34247;50.064;19.970;2023-01-15T05:36:56;24.40;20.60
21085;DHT22;34247;50.064;19.970;2023-01-15T05:37:59;24.40;20.50
21085;DHT22;34247;50.064;19.970;2023-01-15T05:39:04;24.50;20.50
21085;DHT22;34247;50.064;19.970;2023-01-15T05:40:08;24.40;20.40
21085;DHT22;34247;50.064;19.970;2023-01-15T05:41:15;24.40;20.50
21085;DHT22;34247;50.064;19.970;2023-01-15T05:42:39;24.40;20.50
21085;DHT22;34247;50.064;19.970;2023-01-15T05:43:42;24.50;20.40
21085;DHT22;34247;50.064;19.970;2023-01-15T05:44:46;24.50;20.40
21085;DHT22;34247;50.064;19.970;2023-01-15T05:45:50;24.50;20.40
21085;DHT22;34247;50.064;19.970;2023-01-15T05:46:56;24.40;20.40
21085;DHT22;34247;50.064;19.970;2023-01-15T05:48:02;24.40;20.50
21085;DHT22;34247;50.064;19.970;2023-01-15T05:49:15;24.40;20.50
21085;DHT22;34247;50.064;19.970;2023-01-15T05:50:21;24.40;20.60
21085;DHT22;34247;50.064;19.970;2023-01-15T05:51:25;24.30;20.70
21085;DHT22;34247;50.064;19.970;2023-01-15T05:52:29;24.40;20.60
21085;DHT22;34247;50.064;19.970;2023-01-15T05:53:33;24.40;20.60
21085;DHT22;34247;50.064;19.970;2023-01-15T05:54:37;24.40;20.50
21085;DHT22;34247;50.064;19.970;2023-01-15T05:55:41;24.40;20.60
21085;DHT22;34247;50.064;19.970;2023-01-15T05:56:45;24.40;20.50
21085;DHT22;34247;50.064;19.970;2023-01-15T05:57:49;24.40;20.50
21085;DHT22;34247;50.064;19.970;2023-01-15T05:58:53;24.50;20.50
21085;DHT22;34247;50.064;19.970;2023-01-15T05:59:58;24.50;20.60
21085;DHT22;34247;50.064;19.970;2023-01-15T06:01:06;24.50;20.50
21085;DHT22;34247;50.064;19.970;2023-01-15T06:02:10;24.50;20.50
21085;DHT22;34247;50.064;19.970;2023-01-15T06:03:15;24.40;20.50
21085;DHT22;34247;50.064;19.970;2023-01-15T06:04:20;24.40;20.50
21085;DHT22;34247;50.064;19.970;2023-01-15T06:05:27;24.40;20.60
21085;DHT22;34247;50.064;19.970;2023-01-15T06:06:33;24.40;20.60
21085;DHT22;34247;50.064;19.970;2023-01-15T06:07:38;24.40;20.60
21085;DHT22;34247;50.064;19.970;2023-01-15T06:08:43;24.40;20.70
21085;DHT22;34247;50.064;19.970;2023-01-15T06:09:48;24.40;20.70
21085;DHT22;34247;50.064;19.970;2023-01-15T06:10:53;24.30;20.60
21085;DHT22;34247;50.064;19.970;2023-01-15T06:12:00;24.30;20.60
21085;DHT22;34247;50.064;19.970;2023-01-15T06:13:04;24.40;20.50
21085;DHT22;34247;50.064;19.970;2023-01-15T06:14:09;24.40;20.50
21085;DHT22;34247;50.064;19.970;2023-01-15T06:15:14;24.50;20.40
21085;DHT22;34247;50.064;19.970;2023-01-15T06:16:19;24.50;20.40
21085;DHT22;34247;50.064;19.970;2023-01-15T06:17:24;24.50;20.40
21085;DHT22;34247;50.064;19.970;2023-01-15T06:18:28;24.40;20.40
21085;DHT22;34247;50.064;19.970;2023-01-15T06:19:34;24.40;20.60
21085;DHT22;34247;50.064;19.970;2023-01-15T06:20:39;24.40;20.60
21085;DHT22;34247;50.064;19.970;2023-01-15T06:21:44;24.30;20.60
21085;DHT22;34247;50.064;19.970;2023-01-15T06:22:48;24.30;20.60
21085;DHT22;34247;50.064;19.970;2023-01-15T06:23:55;24.40;20.40
21085;DHT22;34247;50.064;19.970;2023-01-15T06:24:59;24.50;20.40
21085;DHT22;34247;50.064;19.970;2023-01-15T06:26:07;24.50;20.30
21085;DHT22;34247;50.064;19.970;2023-01-15T06:27:15;24.60;20.30
21085;DHT22;34247;50.064;19.970;2023-01-15T06:28:19;24.60;20.20
21085;DHT22;34247;50.064;19.970;2023-01-15T06:29:23;24.70;20.60
21085;DHT22;34247;50.064;19.970;2023-01-15T06:30:30;24.90;20.00
21085;DHT22;34247;50.064;19.970;2023-01-15T06:31:34;24.90;19.90
21085;DHT22;34247;50.064;19.970;2023-01-15T06:32:41;24.80;19.90
21085;DHT22;34247;50.064;19.970;2023-01-15T06:33:49;24.80;20.00
21085;DHT22;34247;50.064;19.970;2023-01-15T06:34:53;24.80;20.00
21085;DHT22;34247;50.064;19.970;2023-01-15T06:35:57;24.70;20.00
21085;DHT22;34247;50.064;19.970;2023-01-15T06:37:00;24.70;19.90
21085;DHT22;34247;50.064;19.970;2023-01-15T06:38:04;24.80;19.90
21085;DHT22;34247;50.064;19.970;2023-01-15T06:39:08;24.70;19.90
21085;DHT22;34247;50.064;19.970;2023-01-15T06:40:13;24.70;19.90
21085;DHT22;34247;50.064;19.970;2023-01-15T06:41:22;24.70;20.00
21085;DHT22;34247;50.064;19.970;2023-01-15T06:42:45;24.60;20.00
21085;DHT22;34247;50.064;19.970;2023-01-15T06:44:13;24.60;20.00
21085;DHT22;34247;50.064;19.970;2023-01-15T06:45:39;24.70;20.00
21085;DHT22;34247;50.064;19.970;2023-01-15T06:47:14;24.70;20.00
21085;DHT22;34247;50.064;19.970;2023-01-15T06:48:25;24.70;19.90
21085;DHT22;34247;50.064;19.970;2023-01-15T06:49:32;24.70;20.00
21085;DHT22;34247;50.064;19.970;2023-01-15T06:50:36;24.70;20.00
21085;DHT22;34247;50.064;19.970;2023-01-15T06:51:40;24.80;20.10
21085;DHT22;34247;50.064;19.970;2023-01-15T06:52:44;24.70;20.10
21085;DHT22;34247;50.064;19.970;2023-01-15T06:53:48;24.70;20.10
21085;DHT22;34247;50.064;19.970;2023-01-15T06:54:51;24.70;20.00
21085;DHT22;34247;50.064;19.970;2023-01-15T06:55:58;24.70;20.00
21085;DHT22;34247;50.064;19.970;2023-01-15T06:57:04;24.80;20.00
21085;DHT22;34247;50.064;19.970;2023-01-15T06:58:08;24.70;20.00
21085;DHT22;34247;50.064;19.970;2023-01-15T06:59:12;24.70;20.00
21085;DHT22;34247;50.064;19.970;2023-01-15T07:00:17;24.80;19.90
21085;DHT22;34247;50.064;19.970;2023-01-15T07:01:21;24.80;19.80
21085;DHT22;34247;50.064;19.970;2023-01-15T07:02:27;24.80;19.90
21085;DHT22;34247;50.064;19.970;2023-01-15T07:03:32;24.80;19.80
21085;DHT22;34247;50.064;19.970;2023-01-15T07:04:40;24.80;19.80
21085;DHT22;34247;50.064;19.970;2023-01-15T07:05:44;24.80;19.80
21085;DHT22;34247;50.064;19.970;2023-01-15T07:06:48;25.00;19.80
21085;DHT22;34247;50.064;19.970;2023-01-15T07:07:52;25.00;19.70
21085;DHT22;34247;50.064;19.970;2023-01-15T07:08:57;24.90;19.60
21085;DHT22;34247;50.064;19.970;2023-01-15T07:10:01;25.00;19.50
21085;DHT22;34247;50.064;19.970;2023-01-15T07:11:07;25.10;19.50
21085;DHT22;34247;50.064;19.970;2023-01-15T07:12:12;25.10;19.50
21085;DHT22;34247;50.064;19.970;2023-01-15T07:13:16;25.00;19.60
21085;DHT22;34247;50.064;19.970;2023-01-15T07:14:23;25.00;19.60
21085;DHT22;34247;50.064;19.970;2023-01-15T07:15:28;25.00;19.60
21085;DHT22;34247;50.064;19.970;2023-01-15T07:16:36;24.90;19.70
21085;DHT22;34247;50.064;19.970;2023-01-15T07:17:39;25.00;19.70
21085;DHT22;34247;50.064;19.970;2023-01-15T07:18:43;24.90;19.70
21085;DHT22;34247;50.064;19.970;2023-01-15T07:19:47;24.80;19.90
21085;DHT22;34247;50.064;19.970;2023-01-15T07:20:54;24.80;19.80
21085;DHT22;34247;50.064;19.970;2023-01-15T07:22:00;24.80;19.80
21085;DHT22;34247;50.064;19.970;2023-01-15T07:23:04;24.80;19.80
21085;DHT22;34247;50.064;19.970;2023-01-15T07:24:09;24.80;19.90
21085;DHT22;34247;50.064;19.970;2023-01-15T07:25:14;24.80;19.80
21085;DHT22;34247;50.064;19.970;2023-01-15T07:26:21;24.80;19.90
21085;DHT22;34247;50.064;19.970;2023-01-15T07:27:26;24.80;19.90
21085;DHT22;34247;50.064;19.970;2023-01-15T07:28:30;24.80;19.90